Time;durP1;ratioP1;P1;durP2;ratioP2;P2;SDS_P1;SDS_P2;PMS_P1;PMS_P2;Temp;Humidity;BMP_temperature;BMP_pressure;BME280_temperature;BME280_humidity;BME280_pressure;Samples;Min_cycle;Max_cycle;Signal;HPM_P1;HPM_P2
2023/01/23 00:01:25;;;;;;;0.80;0.80;;;2.20;99.90;;;;;;4989975;28;20038;-85
2023/01/23 00:03:52;;;;;;;0.70;0.70;;;1.40;99.90;;;;;;4995184;28;20556;-85
2023/01/23 00:06:17;;;;;;;0.68;0.68;;;3.20;99.90;;;;;;4992041;28;20042;-84
2023/01/23 00:08:45;;;;;;;0.90;0.90;;;2.20;99.90;;;;;;4959816;28;20034;-84
2023/01/23 00:11:12;;;;;;;0.60;0.60;;;2.20;99.90;;;;;;4990593;28;20037;-86
2023/01/23 00:13:38;;;;;;;0.60;0.60;;;2.90;99.90;;;;;;4995994;28;20499;-84
2023/01/23 00:16:06;;;;;;;0.60;0.60;;;2.20;99.90;;;;;;4991132;28;20042;-84
2023/01/23 00:18:33;;;;;;;0.50;0.50;;;2.20;99.90;;;;;;4975303;28;20053;-86
2023/01/23 00:21:03;;;;;;;0.55;0.55;;;2.20;99.90;;;;;;4993028;28;20049;-87
2023/01/23 00:23:29;;;;;;;0.50;0.50;;;3.30;99.90;;;;;;4984615;28;20438;-84
2023/01/23 00:25:55;;;;;;;0.60;0.60;;;3.20;99.90;;;;;;4980548;28;20041;-84
2023/01/23 00:28:20;;;;;;;0.95;0.95;;;2.20;99.90;;;;;;4940343;28;20046;-84
2023/01/23 00:30:46;;;;;;;0.60;0.60;;;2.40;99.90;;;;;;4993841;28;20046;-85
2023/01/23 00:33:12;;;;;;;1.08;1.08;;;2.20;99.90;;;;;;4945925;28;20627;-86
2023/01/23 00:35:37;;;;;;;0.60;0.60;;;2.90;99.90;;;;;;4955830;28;20610;-85
2023/01/23 00:38:03;;;;;;;1.10;1.10;;;2.30;99.90;;;;;;4976709;28;20046;-85
2023/01/23 00:40:29;;;;;;;0.60;0.60;;;2.40;99.90;;;;;;4980177;28;20417;-85
2023/01/23 00:42:54;;;;;;;0.70;0.70;;;3.60;99.90;;;;;;4977772;28;20084;-85
2023/01/23 00:45:20;;;;;;;0.50;0.50;;;2.10;99.90;;;;;;4942665;28;20042;-85
2023/01/23 00:47:46;;;;;;;0.70;0.70;;;3.40;99.90;;;;;;4945282;28;20439;-86
2023/01/23 00:50:11;;;;;;;0.60;0.60;;;2.20;99.90;;;;;;4997288;28;20077;-85
2023/01/23 00:52:37;;;;;;;0.57;0.57;;;2.30;99.90;;;;;;4977758;28;20045;-85
2023/01/23 00:55:04;;;;;;;0.63;0.63;;;2.30;99.90;;;;;;4998477;28;20084;-86
2023/01/23 00:57:30;;;;;;;0.50;0.50;;;2.10;99.90;;;;;;4944508;28;20075;-85
2023/01/23 00:59:55;;;;;;;0.60;0.60;;;2.10;99.90;;;;;;4974167;28;20062;-86
2023/01/23 01:02:21;;;;;;;0.70;0.70;;;2.70;99.90;;;;;;4943243;28;20042;-84
2023/01/23 01:04:47;;;;;;;0.63;0.63;;;2.10;99.90;;;;;;4960795;28;20476;-84
2023/01/23 01:07:12;;;;;;;0.70;0.70;;;3.60;99.90;;;;;;4960891;28;20042;-86
2023/01/23 01:09:38;;;;;;;0.60;0.60;;;2.50;99.90;;;;;;4976848;28;20531;-85
2023/01/23 01:12:05;;;;;;;0.63;0.63;;;2.90;99.90;;;;;;4961539;28;20046;-84
2023/01/23 01:14:31;;;;;;;0.60;0.60;;;0.90;99.90;;;;;;4975348;28;20358;-84
2023/01/23 01:16:57;;;;;;;0.60;0.60;;;2.10;99.90;;;;;;4976449;28;20138;-84
2023/01/23 01:19:23;;;;;;;0.57;0.57;;;2.10;99.90;;;;;;4976422;28;20054;-84
2023/01/23 01:21:49;;;;;;;0.60;0.60;;;2.10;99.90;;;;;;4997569;28;20030;-84
2023/01/23 01:24:15;;;;;;;0.70;0.70;;;2.10;99.90;;;;;;4959150;28;20382;-84
2023/01/23 01:26:41;;;;;;;0.50;0.50;;;2.10;99.90;;;;;;4975925;28;20053;-85
2023/01/23 01:29:06;;;;;;;0.60;0.60;;;3.10;99.90;;;;;;4958561;28;20557;-86
2023/01/23 01:31:32;;;;;;;0.70;0.70;;;3.20;99.90;;;;;;4972639;28;20031;-86
2023/01/23 01:33:58;;;;;;;0.60;0.60;;;3.50;99.90;;;;;;4991359;28;20054;-85
2023/01/23 01:36:24;;;;;;;0.50;0.50;;;3.30;99.90;;;;;;4961291;28;20030;-85
2023/01/23 01:38:50;;;;;;;0.70;0.70;;;3.20;99.90;;;;;;4957116;28;20035;-84
2023/01/23 01:41:16;;;;;;;0.60;0.60;;;2.10;99.90;;;;;;4990880;28;20873;-84
2023/01/23 01:43:43;;;;;;;0.60;0.60;;;2.10;99.90;;;;;;4991044;28;20038;-84
2023/01/23 01:46:25;;;;;;;0.60;0.60;;;3.00;99.90;;;;;;4958355;28;20035;-84
2023/01/23 01:49:13;;;;;;;0.60;0.60;;;2.10;99.90;;;;;;4976538;28;20050;-85
2023/01/23 01:51:54;;;;;;;0.73;0.73;;;2.10;99.90;;;;;;4988156;28;20042;-83
2023/01/23 01:54:27;;;;;;;0.77;0.77;;;2.10;99.90;;;;;;4989036;28;20046;-85
2023/01/23 01:57:17;;;;;;;0.60;0.60;;;2.10;99.90;;;;;;4988777;28;20057;-83
2023/01/23 01:59:46;;;;;;;1.02;1.02;;;2.10;99.90;;;;;;4987686;28;20412;-84
2023/01/23 02:02:18;;;;;;;0.60;0.60;;;2.20;99.90;;;;;;4990825;28;20058;-85
2023/01/23 02:04:48;;;;;;;0.60;0.60;;;2.20;99.90;;;;;;4971978;28;20046;-86
2023/01/23 02:07:37;;;;;;;0.60;0.60;;;2.00;99.90;;;;;;4988435;28;20096;-85
2023/01/23 02:10:05;;;;;;;0.60;0.60;;;2.00;99.90;;;;;;4968675;28;20354;-84
2023/01/23 02:12:33;;;;;;;0.60;0.60;;;2.00;99.90;;;;;;4969389;28;20051;-83
2023/01/23 02:15:01;;;;;;;0.70;0.70;;;2.00;99.90;;;;;;4987038;28;20065;-86
2023/01/23 02:17:28;;;;;;;0.60;0.60;;;2.00;99.90;;;;;;4991331;28;20072;-84
2023/01/23 02:19:54;;;;;;;0.57;0.57;;;2.00;99.90;;;;;;4971062;28;20027;-84
2023/01/23 02:23:05;;;;;;;0.70;0.70;;;3.00;99.90;;;;;;4983790;28;21563;-84
2023/01/23 02:25:43;;;;;;;0.70;0.70;;;2.10;99.90;;;;;;4981720;28;20042;-86
2023/01/23 02:28:14;;;;;;;0.70;0.70;;;2.20;99.90;;;;;;4991357;28;20042;-86
2023/01/23 02:30:41;;;;;;;0.60;0.60;;;2.00;99.90;;;;;;4973547;28;20049;-86
2023/01/23 02:33:19;;;;;;;0.60;0.60;;;2.70;99.90;;;;;;4984241;28;20692;-86
2023/01/23 02:35:45;;;;;;;0.60;0.60;;;2.20;99.90;;;;;;4992092;28;20529;-85
2023/01/23 02:38:11;;;;;;;;;;;2.90;99.90;;;;;;4988453;28;20051;-85
2023/01/23 02:40:40;;;;;;;0.70;0.70;;;3.30;99.90;;;;;;4971245;28;19925;-85
2023/01/23 02:43:09;;;;;;;0.57;0.57;;;2.20;99.90;;;;;;4990028;28;20050;-84
2023/01/23 02:45:35;;;;;;;0.70;0.70;;;2.00;99.90;;;;;;4987131;28;20042;-84
2023/01/23 02:48:04;;;;;;;0.63;0.63;;;2.00;99.90;;;;;;4988107;28;20456;-86
2023/01/23 02:50:30;;;;;;;0.60;0.60;;;2.10;99.90;;;;;;4993933;28;20524;-84
2023/01/23 02:52:57;;;;;;;0.60;0.60;;;3.60;99.90;;;;;;4985374;28;20124;-86
2023/01/23 02:55:29;;;;;;;0.60;0.60;;;2.30;99.90;;;;;;4990166;28;20152;-85
2023/01/23 03:00:14;;;;;;;0.70;0.70;;;2.10;99.90;;;;;;4973429;28;20050;-84
2023/01/23 03:00:45;;;;;;;0.60;0.60;;;2.10;99.90;;;;;;4991523;28;20529;-84
2023/01/23 03:03:11;;;;;;;0.60;0.60;;;2.40;99.90;;;;;;4973756;28;20086;-84
2023/01/23 03:05:36;;;;;;;;;;;3.40;99.90;;;;;;4955896;28;20046;-84
2023/01/23 03:08:03;;;;;;;0.50;0.50;;;2.10;99.90;;;;;;4989129;28;19921;-88
2023/01/23 03:10:29;;;;;;;;;;;2.10;99.90;;;;;;4993087;28;20041;-85
2023/01/23 03:12:57;;;;;;;0.50;0.50;;;2.50;99.90;;;;;;4989847;28;19925;-84
2023/01/23 03:15:23;;;;;;;0.63;0.63;;;2.10;99.90;;;;;;5008025;28;20463;-87
2023/01/23 03:17:48;;;;;;;0.60;0.60;;;2.10;99.90;;;;;;4969487;28;20113;-84
2023/01/23 03:20:17;;;;;;;0.63;0.63;;;2.90;99.90;;;;;;4972009;28;20047;-85
2023/01/23 03:22:43;;;;;;;0.60;0.60;;;2.10;99.90;;;;;;5002139;28;20046;-84
2023/01/23 03:25:09;;;;;;;0.50;0.50;;;2.10;99.90;;;;;;5002681;28;20054;-85
2023/01/23 03:27:36;;;;;;;0.60;0.60;;;2.10;99.90;;;;;;4985678;28;20042;-85
2023/01/23 03:30:15;;;;;;;0.60;0.60;;;2.00;99.90;;;;;;4990794;28;20053;-84
2023/01/23 03:32:45;;;;;;;0.60;0.60;;;2.00;99.90;;;;;;4989727;28;20085;-85
2023/01/23 03:35:19;;;;;;;0.50;0.50;;;2.00;99.90;;;;;;4973438;28;20097;-84
2023/01/23 03:37:46;;;;;;;0.70;0.70;;;3.30;99.90;;;;;;4974036;28;20503;-84
2023/01/23 03:43:08;;;;;;;0.60;0.60;;;2.00;99.90;;;;;;4989785;28;20050;-84
2023/01/23 03:45:33;;;;;;;0.50;0.50;;;2.30;99.90;;;;;;4987608;28;20377;-86
2023/01/23 03:47:59;;;;;;;0.70;0.70;;;3.40;99.90;;;;;;4987350;28;20042;-85
2023/01/23 03:50:25;;;;;;;0.50;0.50;;;2.50;99.90;;;;;;4975340;28;20498;-83
2023/01/23 03:52:51;;;;;;;0.65;0.65;;;2.00;99.90;;;;;;4989388;28;20038;-84
2023/01/23 03:55:16;;;;;;;0.70;0.70;;;2.00;99.90;;;;;;4977484;28;20142;-85
2023/01/23 03:57:42;;;;;;;0.60;0.60;;;2.00;99.90;;;;;;4991335;28;20055;-84
2023/01/23 04:00:08;;;;;;;0.50;0.50;;;3.60;99.90;;;;;;4956283;28;20049;-83
2023/01/23 04:02:34;;;;;;;0.70;0.70;;;2.10;99.90;;;;;;4974174;28;20051;-84
2023/01/23 04:05:00;;;;;;;0.60;0.60;;;2.10;99.90;;;;;;4990785;28;20096;-86
2023/01/23 04:07:25;;;;;;;0.65;0.65;;;2.00;99.90;;;;;;4969262;28;20054;-84
2023/01/23 04:09:51;;;;;;;0.70;0.70;;;2.10;99.90;;;;;;4987835;28;20530;-85
2023/01/23 04:12:17;;;;;;;0.60;0.60;;;3.60;99.90;;;;;;4975794;28;20038;-84
2023/01/23 04:14:42;;;;;;;0.73;0.73;;;2.00;99.90;;;;;;4959357;28;20038;-83
2023/01/23 04:17:10;;;;;;;0.60;0.60;;;2.00;99.90;;;;;;4985046;28;20074;-84
2023/01/23 04:19:35;;;;;;;0.60;0.60;;;2.80;99.90;;;;;;4988591;28;20424;-84
2023/01/23 04:22:01;;;;;;;0.60;0.60;;;2.00;99.90;;;;;;4986182;28;20042;-84
2023/01/23 04:24:27;;;;;;;0.70;0.70;;;2.00;99.90;;;;;;4971676;28;20510;-85
2023/01/23 04:26:53;;;;;;;0.70;0.70;;;2.00;99.90;;;;;;4971881;28;20042;-86
2023/01/23 04:29:19;;;;;;;0.70;0.70;;;2.00;99.90;;;;;;4986313;28;20048;-88
2023/01/23 04:31:44;;;;;;;0.70;0.70;;;2.00;99.90;;;;;;4984398;28;20046;-84
2023/01/23 04:34:10;;;;;;;0.70;0.70;;;2.00;99.90;;;;;;4988757;28;20046;-85
2023/01/23 04:36:36;;;;;;;0.60;0.60;;;2.10;99.90;;;;;;5008335;28;20117;-84
2023/01/23 04:39:03;;;;;;;0.60;0.60;;;2.00;99.90;;;;;;4959668;28;20048;-83
2023/01/23 04:41:31;;;;;;;0.60;0.60;;;2.00;99.90;;;;;;4987852;28;20049;-84
2023/01/23 04:44:18;;;;;;;0.60;0.60;;;2.00;99.90;;;;;;4991461;28;20042;-85
2023/01/23 04:46:42;;;;;;;0.60;0.60;;;3.10;99.90;;;;;;4989224;28;20058;-85
2023/01/23 04:49:08;;;;;;;0.50;0.50;;;2.30;99.90;;;;;;4975764;28;20042;-85
2023/01/23 04:51:35;;;;;;;0.70;0.70;;;2.00;99.90;;;;;;4991641;28;20149;-85
2023/01/23 04:54:01;;;;;;;0.60;0.60;;;2.00;99.90;;;;;;4986431;28;20049;-86
2023/01/23 04:56:26;;;;;;;0.50;0.50;;;1.90;99.90;;;;;;4976233;28;20469;-88
2023/01/23 04:58:52;;;;;;;0.50;0.50;;;2.20;99.90;;;;;;4977130;28;20054;-87
2023/01/23 05:01:21;;;;;;;0.70;0.70;;;3.30;99.90;;;;;;4977958;28;20034;-84
2023/01/23 05:03:48;;;;;;;0.70;0.70;;;1.90;99.90;;;;;;4939993;28;20034;-86
2023/01/23 05:06:14;;;;;;;0.70;0.70;;;2.20;99.90;;;;;;4976486;28;20117;-84
2023/01/23 05:08:40;;;;;;;0.60;0.60;;;3.50;99.90;;;;;;4993286;28;20094;-86
2023/01/23 05:11:06;;;;;;;0.63;0.63;;;1.90;99.90;;;;;;5011576;28;20414;-87
2023/01/23 05:13:31;;;;;;;0.60;0.60;;;2.00;99.90;;;;;;4969332;28;20121;-86
2023/01/23 05:15:57;;;;;;;0.60;0.60;;;2.00;99.90;;;;;;4970005;28;20046;-87
2023/01/23 05:18:23;;;;;;;1.35;1.25;;;3.50;99.90;;;;;;4983857;28;20125;-86
2023/01/23 05:20:48;;;;;;;0.70;0.70;;;2.90;99.90;;;;;;5007532;28;20121;-86
2023/01/23 05:23:14;;;;;;;0.60;0.60;;;3.00;99.90;;;;;;4992386;28;20425;-84
2023/01/23 05:25:40;;;;;;;0.73;0.73;;;3.20;99.90;;;;;;4988367;28;20056;-87
2023/01/23 05:28:05;;;;;;;0.80;0.80;;;2.90;99.90;;;;;;4990670;28;20385;-86
2023/01/23 05:30:31;;;;;;;0.80;0.80;;;2.00;99.90;;;;;;4971600;28;20050;-86
2023/01/23 05:32:57;;;;;;;0.60;0.60;;;1.90;99.90;;;;;;4960107;28;20046;-87
2023/01/23 05:35:22;;;;;;;0.55;0.55;;;2.00;99.90;;;;;;4993074;28;20550;-86
2023/01/23 05:37:52;;;;;;;0.63;0.63;;;1.90;99.90;;;;;;4960200;28;20507;-86
2023/01/23 05:40:19;;;;;;;0.60;0.60;;;2.10;99.90;;;;;;4975401;28;20062;-88
2023/01/23 05:42:45;;;;;;;0.63;0.63;;;1.90;99.90;;;;;;4991450;28;20516;-85
2023/01/23 05:45:11;;;;;;;;;;;2.80;99.90;;;;;;4991413;28;20070;-84
2023/01/23 05:47:37;;;;;;;0.60;0.60;;;2.00;99.90;;;;;;4989733;28;19968;-85
2023/01/23 05:50:04;;;;;;;;;;;1.90;99.90;;;;;;4990662;28;20104;-83
2023/01/23 05:52:30;;;;;;;0.60;0.60;;;1.90;99.90;;;;;;4987547;28;19972;-86
2023/01/23 05:54:56;;;;;;;0.60;0.60;;;1.60;99.90;;;;;;5003952;28;20433;-85
2023/01/23 05:57:22;;;;;;;0.70;0.70;;;2.00;99.90;;;;;;4976140;28;20500;-86
2023/01/23 05:59:48;;;;;;;0.63;0.63;;;3.40;99.90;;;;;;4976071;28;20361;-86
2023/01/23 06:02:13;;;;;;;0.60;0.60;;;3.30;99.90;;;;;;4975688;28;20054;-86
2023/01/23 06:04:41;;;;;;;0.50;0.50;;;1.90;99.90;;;;;;4976257;28;20052;-85
2023/01/23 06:07:12;;;;;;;0.80;0.80;;;1.90;99.90;;;;;;4993438;28;20377;-86
2023/01/23 06:09:37;;;;;;;0.70;0.70;;;3.50;99.90;;;;;;4990176;28;20073;-88
2023/01/23 06:12:03;;;;;;;0.60;0.60;;;0.90;99.90;;;;;;4976797;28;20077;-87
2023/01/23 06:14:29;;;;;;;0.70;0.70;;;2.00;99.90;;;;;;4959504;28;20097;-86
2023/01/23 06:16:54;;;;;;;0.60;0.60;;;2.00;99.90;;;;;;4969475;28;20049;-86
2023/01/23 06:19:20;;;;;;;0.70;0.70;;;3.00;99.90;;;;;;4990658;28;20046;-89
2023/01/23 06:21:46;;;;;;;0.75;0.75;;;2.00;99.90;;;;;;4986687;28;20772;-88
2023/01/23 06:24:11;;;;;;;0.85;0.85;;;2.00;99.90;;;;;;4977302;28;20045;-91
2023/01/23 06:26:37;;;;;;;0.60;0.60;;;2.60;99.90;;;;;;4977751;28;20117;-90
2023/01/23 06:29:03;;;;;;;0.70;0.70;;;2.00;99.90;;;;;;4976666;28;20046;-88
2023/01/23 06:31:31;;;;;;;;;;;3.40;99.90;;;;;;4968851;28;20034;-84
2023/01/23 06:33:57;;;;;;;0.70;0.70;;;3.70;99.90;;;;;;4981775;28;20017;-85
2023/01/23 06:36:23;;;;;;;0.60;0.60;;;3.80;99.90;;;;;;5002873;28;20527;-87
2023/01/23 06:38:49;;;;;;;0.60;0.60;;;3.20;99.90;;;;;;4951714;28;20042;-85
2023/01/23 06:41:14;;;;;;;0.60;0.60;;;2.00;99.90;;;;;;4987734;28;20045;-84
2023/01/23 06:43:40;;;;;;;0.60;0.60;;;1.90;99.90;;;;;;4973107;28;20078;-84
2023/01/23 06:46:10;;;;;;;0.55;0.55;;;1.90;99.90;;;;;;4956931;28;20133;-84
2023/01/23 06:48:36;;;;;;;0.50;0.50;;;1.90;99.90;;;;;;4989957;28;20070;-86
2023/01/23 06:51:02;;;;;;;;;;;1.80;99.90;;;;;;4988881;28;20057;-85
2023/01/23 06:53:28;;;;;;;0.60;0.60;;;1.90;99.90;;;;;;4990351;28;19918;-83
2023/01/23 06:56:05;;;;;;;0.70;0.70;;;3.30;99.90;;;;;;4992795;28;20385;-85
2023/01/23 06:58:32;;;;;;;0.60;0.60;;;1.90;99.90;;;;;;4995587;28;20050;-86
2023/01/23 07:00:58;;;;;;;0.70;0.70;;;1.90;99.90;;;;;;4992627;28;20046;-84
2023/01/23 07:03:24;;;;;;;;;;;3.10;99.90;;;;;;4996692;28;20096;-84
2023/01/23 07:05:50;;;;;;;0.70;0.70;;;1.90;99.90;;;;;;4989923;28;19961;-85
2023/01/23 07:08:16;;;;;;;0.60;0.60;;;2.60;99.90;;;;;;4978960;28;20117;-82
2023/01/23 07:10:42;;;;;;;0.60;0.60;;;2.50;99.90;;;;;;4971169;28;20484;-83
2023/01/23 07:13:09;;;;;;;0.60;0.60;;;3.30;99.90;;;;;;4990204;28;20047;-84
2023/01/23 07:15:36;;;;;;;0.70;0.70;;;2.80;99.90;;;;;;4976544;28;20042;-84
2023/01/23 07:18:02;;;;;;;0.70;0.70;;;1.90;99.90;;;;;;4990595;28;20066;-87
2023/01/23 07:20:28;;;;;;;;;;;3.20;99.90;;;;;;4986271;28;20038;-84
2023/01/23 07:22:55;;;;;;;0.60;0.60;;;2.10;99.90;;;;;;4991927;28;19922;-85
2023/01/23 07:25:22;;;;;;;0.55;0.55;;;3.30;99.90;;;;;;4976961;28;20563;-85
2023/01/23 07:27:48;;;;;;;0.60;0.60;;;1.80;99.90;;;;;;4969871;28;20038;-85
2023/01/23 07:30:14;;;;;;;;;;;3.10;99.90;;;;;;4990829;28;20113;-84
2023/01/23 07:32:40;;;;;;;0.63;0.63;;;1.80;99.90;;;;;;4974864;28;20009;-85
2023/01/23 07:35:06;;;;;;;0.70;0.70;;;2.40;99.90;;;;;;4974986;28;20094;-85
2023/01/23 07:37:32;;;;;;;0.63;0.63;;;1.90;99.90;;;;;;4975227;28;20037;-84
2023/01/23 07:39:58;;;;;;;0.50;0.50;;;1.80;99.90;;;;;;4975392;28;20038;-87
2023/01/23 07:42:24;;;;;;;0.50;0.50;;;1.80;99.90;;;;;;4975513;28;20033;-84
2023/01/23 07:44:49;;;;;;;0.60;0.60;;;1.90;99.90;;;;;;4974594;28;20045;-85
2023/01/23 07:47:15;;;;;;;0.70;0.70;;;1.80;99.90;;;;;;4975382;28;20520;-86
2023/01/23 07:49:47;;;;;;;0.70;0.70;;;1.80;99.90;;;;;;4956956;28;20076;-85
2023/01/23 07:52:12;;;;;;;0.60;0.60;;;1.80;99.90;;;;;;4958001;28;20544;-87
2023/01/23 07:54:38;;;;;;;0.70;0.70;;;1.80;99.90;;;;;;4974841;28;20043;-85
2023/01/23 07:57:04;;;;;;;0.50;0.50;;;1.80;99.90;;;;;;4957104;28;20141;-85
2023/01/23 07:59:30;;;;;;;0.70;0.70;;;1.80;99.90;;;;;;4974945;28;20121;-85
2023/01/23 08:01:55;;;;;;;0.60;0.60;;;1.80;99.90;;;;;;4995841;28;20069;-85
2023/01/23 08:04:21;;;;;;;0.80;0.80;;;1.90;99.90;;;;;;4994878;28;20096;-85
2023/01/23 08:06:47;;;;;;;0.60;0.60;;;1.90;99.90;;;;;;4989803;28;20404;-88
2023/01/23 08:09:12;;;;;;;0.70;0.70;;;1.90;99.90;;;;;;4960339;28;20051;-84
2023/01/23 08:11:38;;;;;;;0.60;0.60;;;1.90;99.90;;;;;;4990363;28;20415;-85
2023/01/23 08:14:04;;;;;;;0.50;0.50;;;1.90;99.90;;;;;;4978976;28;20560;-84
2023/01/23 08:16:30;;;;;;;0.70;0.70;;;2.00;99.90;;;;;;4996449;28;20126;-85
2023/01/23 08:18:56;;;;;;;0.60;0.60;;;2.00;99.90;;;;;;4975317;28;20066;-84
2023/01/23 08:21:22;;;;;;;0.50;0.50;;;2.50;99.90;;;;;;4994419;28;20034;-88
2023/01/23 08:23:47;;;;;;;0.60;0.60;;;3.20;99.90;;;;;;4961840;28;20038;-84
2023/01/23 08:26:15;;;;;;;0.65;0.65;;;2.00;99.90;;;;;;4994413;28;20351;-83
2023/01/23 08:28:42;;;;;;;0.68;0.68;;;2.00;99.90;;;;;;4974866;28;20045;-84
2023/01/23 08:31:09;;;;;;;0.70;0.70;;;2.10;99.90;;;;;;4974339;28;20046;-87
2023/01/23 08:33:36;;;;;;;0.60;0.60;;;2.90;99.90;;;;;;4975959;28;20050;-88
2023/01/23 08:36:04;;;;;;;0.55;0.55;;;2.80;99.90;;;;;;4961848;28;20046;-87
2023/01/23 08:38:30;;;;;;;0.70;0.70;;;2.20;99.90;;;;;;4999544;28;20073;-88
2023/01/23 08:40:59;;;;;;;0.68;0.68;;;2.20;99.90;;;;;;4994837;28;20042;-88
2023/01/23 08:43:25;;;;;;;0.50;0.50;;;3.60;99.90;;;;;;4980275;28;20034;-88
2023/01/23 08:45:53;;;;;;;0.70;0.70;;;2.30;99.90;;;;;;4964209;28;20046;-87
2023/01/23 08:48:20;;;;;;;0.70;0.70;;;2.30;99.90;;;;;;4983189;28;20052;-85
2023/01/23 08:50:46;;;;;;;0.60;0.60;;;2.30;99.90;;;;;;4980573;28;20396;-87
2023/01/23 08:53:12;;;;;;;0.60;0.60;;;2.40;99.90;;;;;;4973577;28;20057;-86
2023/01/23 08:55:38;;;;;;;0.55;0.55;;;2.70;99.90;;;;;;4993503;28;20053;-85
2023/01/23 08:58:05;;;;;;;0.70;0.70;;;2.50;99.90;;;;;;4993620;28;20047;-86
2023/01/23 09:00:32;;;;;;;0.60;0.60;;;2.40;99.90;;;;;;4980913;28;20121;-84
2023/01/23 09:03:04;;;;;;;0.52;0.52;;;2.50;99.90;;;;;;4977721;28;20046;-88
2023/01/23 09:05:36;;;;;;;0.77;0.77;;;2.50;99.90;;;;;;4976507;28;20050;-88
2023/01/23 09:08:01;;;;;;;0.60;0.60;;;2.50;99.90;;;;;;4969232;28;20392;-87
2023/01/23 09:10:27;;;;;;;0.60;0.60;;;2.60;99.90;;;;;;4978908;28;20389;-85
2023/01/23 09:12:54;;;;;;;0.55;0.55;;;3.30;99.90;;;;;;4996082;28;20492;-86
2023/01/23 09:15:21;;;;;;;0.60;0.60;;;2.60;99.90;;;;;;4997856;28;20086;-85
2023/01/23 09:17:47;;;;;;;0.70;0.70;;;2.90;99.90;;;;;;4976925;28;20046;-85
2023/01/23 09:20:14;;;;;;;0.65;0.65;;;;;;;;;;4993606;28;20065;-88
2023/01/23 09:22:40;;;;;;;0.60;0.60;;;2.70;99.90;;;;;;4975001;28;20166;-86
2023/01/23 09:25:07;;;;;;;0.55;0.55;;;2.70;99.90;;;;;;4976951;28;20049;-84
2023/01/23 09:27:32;;;;;;;0.70;0.70;;;2.70;99.90;;;;;;4994381;28;20045;-87
2023/01/23 09:29:58;;;;;;;0.60;0.60;;;2.70;99.90;;;;;;4976698;28;20125;-88
2023/01/23 09:32:24;;;;;;;0.70;0.70;;;2.70;99.90;;;;;;4993349;28;20046;-87
2023/01/23 09:34:50;;;;;;;0.63;0.63;;;3.10;99.90;;;;;;4974408;28;20039;-87
2023/01/23 09:37:16;;;;;;;0.52;0.52;;;2.70;99.90;;;;;;4993529;28;20034;-87
2023/01/23 09:39:46;;;;;;;0.52;0.52;;;2.80;99.90;;;;;;4979733;28;20034;-85
2023/01/23 09:42:21;;;;;;;0.60;0.60;;;2.90;99.90;;;;;;4985282;28;20038;-85
2023/01/23 09:44:52;;;;;;;0.60;0.60;;;3.10;99.90;;;;;;4994638;28;20167;-88
2023/01/23 09:47:33;;;;;;;0.63;0.63;;;2.90;99.90;;;;;;4996028;28;20484;-87
2023/01/23 09:50:17;;;;;;;0.60;0.60;;;2.90;99.90;;;;;;4986862;28;20078;-85
2023/01/23 09:52:57;;;;;;;0.68;0.68;;;4.20;99.90;;;;;;4992400;28;20050;-87
2023/01/23 09:55:47;;;;;;;0.60;0.60;;;3.00;99.90;;;;;;4971915;28;20046;-89
2023/01/23 09:58:54;;;;;;;0.63;0.63;;;4.30;99.90;;;;;;4992859;28;20058;-85
2023/01/23 10:01:20;;;;;;;0.60;0.60;;;3.00;99.90;;;;;;4938031;28;20042;-85
2023/01/23 10:03:46;;;;;;;0.47;0.47;;;3.10;99.90;;;;;;4925591;28;20089;-86
2023/01/23 10:06:18;;;;;;;0.63;0.63;;;3.10;99.90;;;;;;4965554;28;20412;-85
2023/01/23 10:08:46;;;;;;;0.60;0.60;;;3.20;99.90;;;;;;4991436;28;20042;-87
2023/01/23 10:11:41;;;;;;;0.45;0.45;;;3.20;99.90;;;;;;4990497;28;20042;-88
2023/01/23 10:14:42;;;;;;;0.70;0.70;;;3.20;99.90;;;;;;4971521;28;20506;-88
2023/01/23 10:17:45;;;;;;;0.60;0.60;;;3.20;99.90;;;;;;4995000;28;20034;-86
2023/01/23 10:20:43;;;;;;;0.60;0.60;;;3.20;99.90;;;;;;4991342;28;20631;-86
2023/01/23 10:23:44;;;;;;;0.70;0.70;;;3.20;99.90;;;;;;4994452;28;20377;-85
2023/01/23 10:26:24;;;;;;;0.68;0.68;;;3.20;99.90;;;;;;4991219;28;20124;-87
2023/01/23 10:28:57;;;;;;;0.60;0.60;;;4.10;99.90;;;;;;4971394;28;20078;-86
2023/01/23 10:31:41;;;;;;;0.70;0.70;;;3.40;99.90;;;;;;4981043;28;20078;-88
2023/01/23 10:34:21;;;;;;;0.60;0.60;;;3.30;99.90;;;;;;4989642;28;20038;-86
2023/01/23 10:37:31;;;;;;;0.50;0.50;;;3.30;99.90;;;;;;4997403;28;20046;-85
2023/01/23 10:40:06;;;;;;;0.60;0.60;;;3.40;99.90;;;;;;5000757;28;20389;-86
2023/01/23 10:42:32;;;;;;;1.50;1.50;;;3.50;99.90;;;;;;4976213;28;20092;-87
2023/01/23 10:44:58;;;;;;;0.70;0.70;;;3.50;99.90;;;;;;4981554;28;20053;-86
2023/01/23 10:47:43;;;;;;;0.68;0.68;;;3.80;99.90;;;;;;4979525;28;20492;-87
2023/01/23 10:50:10;;;;;;;0.98;0.98;;;3.70;99.90;;;;;;4988695;28;20055;-86
2023/01/23 10:52:37;;;;;;;0.60;0.60;;;3.50;99.90;;;;;;4974967;28;20489;-88
2023/01/23 10:55:25;;;;;;;0.43;0.43;;;3.60;99.90;;;;;;4990343;28;20076;-87
2023/01/23 10:57:57;;;;;;;0.50;0.50;;;3.60;99.90;;;;;;4995275;28;20046;-86
2023/01/23 11:00:36;;;;;;;0.40;0.40;;;3.60;99.90;;;;;;4991520;28;20042;-86
2023/01/23 11:03:32;;;;;;;0.50;0.50;;;3.70;99.90;;;;;;4980017;28;20534;-86
2023/01/23 11:06:05;;;;;;;0.70;0.70;;;3.80;99.90;;;;;;4987370;28;20084;-88
2023/01/23 11:08:37;;;;;;;0.63;0.63;;;3.90;99.90;;;;;;4976255;28;20065;-86
2023/01/23 11:11:45;;;;;;;0.60;0.60;;;3.80;99.90;;;;;;4991437;28;20042;-87
2023/01/23 11:14:20;;;;;;;0.87;0.87;;;3.80;99.90;;;;;;4983979;28;20560;-86
2023/01/23 11:17:03;;;;;;;0.70;0.70;;;3.90;99.90;;;;;;4974610;28;20368;-87
2023/01/23 11:19:32;;;;;;;0.50;0.50;;;3.90;99.90;;;;;;4982997;28;20089;-87
2023/01/23 11:22:02;;;;;;;0.52;0.52;;;4.10;99.90;;;;;;4994413;28;20120;-87
2023/01/23 11:24:35;;;;;;;0.50;0.50;;;4.00;99.90;;;;;;4985004;28;20042;-86
2023/01/23 11:27:13;;;;;;;0.60;0.60;;;4.00;99.90;;;;;;4991055;28;20050;-86
2023/01/23 11:29:54;;;;;;;0.50;0.50;;;4.00;99.90;;;;;;4972372;28;20809;-86
2023/01/23 11:32:22;;;;;;;0.60;0.60;;;4.10;99.90;;;;;;4974882;28;20042;-86
2023/01/23 11:35:02;;;;;;;0.60;0.60;;;4.10;99.90;;;;;;4992692;28;20117;-87
2023/01/23 11:37:35;;;;;;;0.47;0.47;;;4.40;99.90;;;;;;4975671;28;20388;-87
2023/01/23 11:40:09;;;;;;;0.50;0.50;;;4.20;99.90;;;;;;5004435;28;20401;-87
2023/01/23 11:42:39;;;;;;;0.60;0.60;;;4.30;99.90;;;;;;4996090;28;20042;-87
2023/01/23 11:45:14;;;;;;;0.50;0.50;;;4.40;99.90;;;;;;4990345;28;20062;-86
2023/01/23 11:47:42;;;;;;;0.50;0.50;;;4.50;99.90;;;;;;4978038;28;20052;-86
2023/01/23 11:50:20;;;;;;;0.68;0.68;;;3.80;99.90;;;;;;4996464;28;20046;-86
2023/01/23 11:53:00;;;;;;;0.60;0.60;;;4.60;99.90;;;;;;5008484;28;20121;-87
2023/01/23 11:55:33;;;;;;;0.60;0.60;;;4.60;99.90;;;;;;4993368;28;20042;-86
2023/01/23 11:58:22;;;;;;;0.50;0.50;;;4.60;99.90;;;;;;4991119;28;20062;-87
2023/01/23 12:00:51;;;;;;;0.50;0.50;;;4.60;99.90;;;;;;4999209;28;20442;-86
2023/01/23 12:03:38;;;;;;;0.50;0.50;;;4.70;99.90;;;;;;4978145;28;20035;-86
2023/01/23 12:06:04;;;;;;;;;;;4.70;99.90;;;;;;4989078;28;20085;-86
2023/01/23 12:08:42;;;;;;;0.50;0.50;;;4.70;99.90;;;;;;4993436;28;19918;-86
2023/01/23 12:11:19;;;;;;;0.40;0.40;;;5.20;99.90;;;;;;4982859;28;20050;-86
2023/01/23 12:14:11;;;;;;;;;;;4.80;99.90;;;;;;5008828;28;20789;-86
2023/01/23 12:17:19;;;;;;;0.50;0.50;;;4.80;99.90;;;;;;5011414;28;19929;-85
2023/01/23 12:19:51;;;;;;;0.52;0.52;;;4.80;99.90;;;;;;4995683;28;20046;-87
2023/01/23 12:22:42;;;;;;;0.50;0.50;;;4.70;99.90;;;;;;4991779;28;20053;-86
2023/01/23 12:25:26;;;;;;;0.60;0.60;;;4.70;99.90;;;;;;4998317;28;20081;-85
2023/01/23 12:28:04;;;;;;;0.50;0.50;;;5.30;99.90;;;;;;4981078;28;20077;-87
2023/01/23 12:30:56;;;;;;;0.60;0.60;;;4.80;99.90;;;;;;5004177;28;20149;-88
2023/01/23 12:33:40;;;;;;;0.50;0.50;;;4.80;99.90;;;;;;4986900;28;20566;-86
2023/01/23 12:36:16;;;;;;;0.50;0.50;;;4.70;99.90;;;;;;4977560;28;20049;-85
2023/01/23 12:39:12;;;;;;;0.50;0.50;;;4.60;99.90;;;;;;4988309;28;20485;-86
2023/01/23 12:41:51;;;;;;;0.50;0.50;;;4.50;99.90;;;;;;4990222;28;20089;-86
2023/01/23 12:44:23;;;;;;;0.50;0.50;;;4.50;99.90;;;;;;4992221;28;20516;-86
2023/01/23 12:47:04;;;;;;;0.50;0.50;;;4.50;99.90;;;;;;4975190;28;20042;-86
2023/01/23 12:49:51;;;;;;;0.50;0.50;;;4.50;99.90;;;;;;4994651;28;20038;-85
2023/01/23 12:52:22;;;;;;;0.50;0.50;;;4.80;99.90;;;;;;5007067;28;20057;-86
2023/01/23 12:55:19;;;;;;;0.50;0.50;;;4.40;99.90;;;;;;4969923;28;20046;-86
2023/01/23 12:57:53;;;;;;;0.50;0.50;;;4.40;99.90;;;;;;4974854;28;20073;-85
2023/01/23 13:00:50;;;;;;;4.38;1.13;;;4.30;99.90;;;;;;4987633;28;20046;-88
2023/01/23 13:03:35;;;;;;;0.60;0.60;;;4.30;99.90;;;;;;4971809;28;20046;-85
2023/01/23 13:06:01;;;;;;;0.40;0.40;;;4.30;99.90;;;;;;4976620;28;20072;-84
2023/01/23 13:08:34;;;;;;;0.52;0.52;;;4.30;99.90;;;;;;4974482;28;20078;-84
2023/01/23 13:14:28;;;;;;;0.50;0.50;;;4.30;99.90;;;;;;5007906;28;21829;-82
2023/01/23 13:16:56;;;;;;;0.60;0.60;;;4.20;99.90;;;;;;4991151;28;20057;-82
2023/01/23 13:22:20;;;;;;;0.40;0.40;;;4.20;99.90;;;;;;4991377;28;20047;-83
2023/01/23 13:25:08;;;;;;;0.52;0.52;;;4.20;99.90;;;;;;4975229;28;20439;-83
2023/01/23 13:27:50;;;;;;;0.50;0.50;;;4.20;99.90;;;;;;4986982;28;20039;-83